Time;durP1;ratioP1;P1;durP2;ratioP2;P2;SDS_P1;SDS_P2;PMS_P1;PMS_P2;Temp;Humidity;BMP_temperature;BMP_pressure;BME280_temperature;BME280_humidity;BME280_pressure;Samples;Min_cycle;Max_cycle;Signal;HPM_P1;HPM_P2
2023/07/07 00:01:04;;;;;;;4.15;2.05;;;13.70;99.90;;;;;;5031408;28;20720;-50
2023/07/07 00:03:30;;;;;;;5.63;2.50;;;13.40;99.90;;;;;;5031167;28;20478;-45
2023/07/07 00:05:56;;;;;;;6.20;2.17;;;13.60;99.90;;;;;;5030559;28;20022;-41
2023/07/07 00:08:22;;;;;;;4.22;1.92;;;14.00;99.90;;;;;;5031471;28;20040;-49
2023/07/07 00:10:48;;;;;;;3.13;1.42;;;12.60;99.90;;;;;;5029750;28;20037;-50
2023/07/07 00:13:15;;;;;;;6.63;2.42;;;13.50;99.90;;;;;;5031216;28;20035;-47
2023/07/07 00:15:44;;;;;;;5.50;2.15;;;13.50;99.90;;;;;;5030894;28;20032;-43
2023/07/07 00:18:12;;;;;;;5.78;2.05;;;13.80;99.90;;;;;;5030985;28;20048;-44
2023/07/07 00:20:37;;;;;;;4.22;1.98;;;13.40;99.90;;;;;;5031067;28;20052;-45
2023/07/07 00:23:03;;;;;;;3.78;1.80;;;13.40;99.90;;;;;;5031015;28;20482;-41
2023/07/07 00:25:28;;;;;;;4.55;1.80;;;13.30;99.90;;;;;;5030795;28;20393;-40
2023/07/07 00:27:54;;;;;;;3.72;1.70;;;13.30;99.90;;;;;;5030851;28;20017;-40
2023/07/07 00:30:20;;;;;;;4.97;1.67;;;13.90;99.90;;;;;;5030692;28;20022;-41
2023/07/07 00:32:45;;;;;;;4.32;2.00;;;13.30;99.90;;;;;;5030750;28;20494;-41
2023/07/07 00:35:11;;;;;;;7.03;2.00;;;13.30;99.90;;;;;;5030771;28;20033;-45
2023/07/07 00:37:37;;;;;;;3.40;1.88;;;13.30;99.90;;;;;;5030630;28;20079;-43
2023/07/07 00:40:03;;;;;;;3.63;1.80;;;13.20;99.90;;;;;;5030622;28;20053;-43
2023/07/07 00:42:30;;;;;;;3.53;2.10;;;13.20;99.90;;;;;;5030673;28;20022;-47
2023/07/07 00:45:07;;;;;;;5.45;2.10;;;13.20;99.90;;;;;;5030505;28;20482;-42
2023/07/07 00:47:39;;;;;;;3.03;1.60;;;13.20;99.90;;;;;;5030826;28;20025;-43
2023/07/07 00:50:07;;;;;;;4.35;1.92;;;13.10;99.90;;;;;;5030742;28;20084;-43
2023/07/07 00:52:33;;;;;;;3.70;2.08;;;13.10;99.90;;;;;;5030670;28;20033;-46
2023/07/07 00:54:59;;;;;;;4.78;2.10;;;13.00;99.90;;;;;;5030545;28;20090;-42
2023/07/07 00:57:25;;;;;;;4.20;1.80;;;12.80;99.90;;;;;;5030602;28;20432;-44
2023/07/07 00:59:51;;;;;;;5.05;1.85;;;13.00;99.90;;;;;;5030404;28;20072;-43
2023/07/07 01:02:24;;;;;;;4.88;1.98;;;13.00;99.90;;;;;;5030445;28;20029;-41
2023/07/07 01:04:53;;;;;;;3.40;1.73;;;12.90;99.90;;;;;;5030434;28;20022;-49
2023/07/07 01:07:28;;;;;;;4.75;1.83;;;12.00;99.90;;;;;;5030394;28;20036;-44
2023/07/07 01:09:54;;;;;;;4.18;1.65;;;12.80;99.90;;;;;;5030377;28;20064;-48
2023/07/07 01:12:19;;;;;;;2.55;1.60;;;12.80;99.90;;;;;;5030191;28;20498;-53
2023/07/07 01:14:47;;;;;;;3.65;1.63;;;12.80;99.90;;;;;;5030447;28;20030;-44
2023/07/07 01:17:29;;;;;;;4.10;1.95;;;12.80;99.90;;;;;;5030932;28;20025;-43
2023/07/07 01:20:14;;;;;;;3.53;1.55;;;12.80;99.90;;;;;;5034375;28;20044;-41
2023/07/07 01:23:06;;;;;;;3.30;1.80;;;12.80;99.90;;;;;;5034299;28;20383;-40
2023/07/07 01:26:06;;;;;;;4.88;2.03;;;12.80;99.90;;;;;;5034410;28;20029;-40
2023/07/07 01:28:43;;;;;;;3.38;1.80;;;12.70;99.90;;;;;;5034309;28;20021;-48
2023/07/07 01:31:28;;;;;;;4.90;1.85;;;12.70;99.90;;;;;;5034150;28;20017;-46
2023/07/07 01:33:54;;;;;;;5.18;1.98;;;13.40;99.90;;;;;;5034253;28;20022;-46
2023/07/07 01:36:20;;;;;;;7.20;1.90;;;12.60;99.90;;;;;;5033976;28;20056;-52
2023/07/07 01:38:46;;;;;;;3.33;1.83;;;12.60;99.90;;;;;;5033973;28;20494;-42
2023/07/07 01:41:35;;;;;;;5.35;1.52;;;12.50;99.90;;;;;;5034008;28;20021;-43
2023/07/07 01:44:16;;;;;;;3.22;1.50;;;12.50;99.90;;;;;;5032719;28;20045;-42
2023/07/07 01:46:56;;;;;;;3.72;1.60;;;12.40;99.90;;;;;;5032536;28;20029;-41
2023/07/07 01:49:24;;;;;;;3.35;1.63;;;12.40;99.90;;;;;;5032469;28;20018;-48
2023/07/07 01:52:09;;;;;;;2.40;1.38;;;12.30;99.90;;;;;;5032437;28;20022;-40
2023/07/07 01:54:38;;;;;;;4.43;1.60;;;12.30;99.90;;;;;;5033702;28;20029;-43
2023/07/07 01:57:06;;;;;;;5.25;1.50;;;11.60;99.90;;;;;;5033767;28;20087;-47
2023/07/07 01:59:32;;;;;;;3.95;1.75;;;12.20;99.90;;;;;;5033715;28;20030;-45
2023/07/07 02:01:58;;;;;;;3.42;1.80;;;12.20;99.90;;;;;;5033758;28;20017;-47
2023/07/07 02:04:24;;;;;;;4.05;1.67;;;12.10;99.90;;;;;;5033655;28;20616;-40
2023/07/07 02:06:50;;;;;;;1.80;1.35;;;12.10;99.90;;;;;;5033535;28;20033;-51
2023/07/07 02:09:15;;;;;;;5.95;1.88;;;12.20;99.90;;;;;;5033680;28;20026;-44
2023/07/07 02:11:41;;;;;;;3.58;1.50;;;12.20;99.90;;;;;;5033461;28;20710;-44
2023/07/07 02:14:06;;;;;;;3.42;1.83;;;12.10;99.90;;;;;;5033387;28;20079;-44
2023/07/07 02:16:32;;;;;;;2.17;1.42;;;12.20;99.90;;;;;;5033522;28;20025;-43
2023/07/07 02:18:58;;;;;;;5.95;2.08;;;12.30;99.90;;;;;;5033200;28;20025;-43
2023/07/07 02:21:23;;;;;;;4.35;1.75;;;12.30;99.90;;;;;;5033581;28;20068;-49
2023/07/07 02:23:49;;;;;;;3.53;1.63;;;12.40;99.90;;;;;;5032123;28;20026;-45
2023/07/07 02:26:18;;;;;;;3.05;1.67;;;12.40;99.90;;;;;;5033205;28;20109;-44
2023/07/07 02:28:44;;;;;;;2.70;1.85;;;13.00;99.90;;;;;;5033025;28;20087;-40
2023/07/07 02:31:11;;;;;;;2.85;1.63;;;12.40;99.90;;;;;;5032854;28;20364;-42
2023/07/07 02:33:37;;;;;;;3.45;1.42;;;12.40;99.90;;;;;;5033135;28;20034;-45
2023/07/07 02:36:06;;;;;;;3.47;2.08;;;12.50;99.90;;;;;;5032920;28;20040;-40
2023/07/07 02:38:32;;;;;;;3.35;2.03;;;12.40;99.90;;;;;;5033057;28;20121;-49
2023/07/07 02:40:59;;;;;;;2.92;1.45;;;12.40;99.90;;;;;;5033199;28;20047;-45
2023/07/07 02:43:24;;;;;;;4.00;1.52;;;12.40;99.90;;;;;;5032870;28;20032;-44
2023/07/07 02:45:51;;;;;;;6.30;1.85;;;12.40;99.90;;;;;;5032807;28;20025;-40
2023/07/07 02:48:18;;;;;;;2.65;1.60;;;12.40;99.90;;;;;;5032898;28;20087;-40
2023/07/07 02:50:52;;;;;;;4.10;1.83;;;12.40;99.90;;;;;;5033056;28;20025;-40
2023/07/07 02:53:18;;;;;;;3.40;1.92;;;12.90;99.90;;;;;;5024622;28;20063;-52
2023/07/07 02:55:45;;;;;;;3.15;1.70;;;12.40;99.90;;;;;;5032762;28;20052;-40
2023/07/07 02:58:11;;;;;;;4.38;1.75;;;12.40;99.90;;;;;;5031177;28;20029;-45
2023/07/07 03:00:37;;;;;;;3.13;1.63;;;12.30;99.90;;;;;;5032184;28;20555;-44
2023/07/07 03:03:03;;;;;;;3.25;1.60;;;12.40;99.90;;;;;;5032734;28;20029;-40
2023/07/07 03:05:31;;;;;;;4.10;1.40;;;12.10;99.90;;;;;;5032685;28;20135;-48
2023/07/07 03:07:56;;;;;;;2.22;1.40;;;12.30;99.90;;;;;;5032447;28;20024;-43
2023/07/07 03:10:22;;;;;;;3.30;1.30;;;12.40;99.90;;;;;;5032336;28;20053;-40
2023/07/07 03:12:48;;;;;;;5.57;1.90;;;12.40;99.90;;;;;;5032503;28;20056;-47
2023/07/07 03:15:13;;;;;;;2.40;1.20;;;12.40;99.90;;;;;;5032221;28;20104;-47
2023/07/07 03:17:39;;;;;;;3.47;1.60;;;12.30;99.90;;;;;;5032453;28;20037;-40
2023/07/07 03:20:08;;;;;;;4.43;2.03;;;11.50;99.90;;;;;;5031949;28;20091;-42
2023/07/07 03:22:34;;;;;;;3.08;1.35;;;12.30;99.90;;;;;;5032335;28;20022;-43
2023/07/07 03:25:00;;;;;;;4.93;2.00;;;12.30;99.90;;;;;;5032084;28;20033;-50
2023/07/07 03:27:26;;;;;;;3.33;1.42;;;12.60;99.90;;;;;;5032014;28;20025;-49
2023/07/07 03:29:52;;;;;;;2.90;1.38;;;12.30;99.90;;;;;;5032114;28;20052;-50
2023/07/07 03:32:17;;;;;;;3.40;1.90;;;12.30;99.90;;;;;;5031900;28;20018;-49
2023/07/07 03:34:43;;;;;;;3.95;1.60;;;12.30;99.90;;;;;;5032059;28;20030;-48
2023/07/07 03:37:09;;;;;;;4.15;1.95;;;10.60;99.90;;;;;;5031778;28;20112;-42
2023/07/07 03:39:35;;;;;;;3.97;1.55;;;12.60;99.90;;;;;;5031862;28;20446;-52
2023/07/07 03:42:01;;;;;;;5.25;1.75;;;12.30;99.90;;;;;;5030719;28;20053;-42
2023/07/07 03:44:26;;;;;;;3.42;1.75;;;11.50;99.90;;;;;;5031785;28;20032;-41
2023/07/07 03:46:52;;;;;;;3.78;1.83;;;12.30;99.90;;;;;;5032063;28;20029;-43
2023/07/07 03:49:18;;;;;;;2.67;1.50;;;12.20;99.90;;;;;;5031567;28;20116;-46
2023/07/07 03:51:43;;;;;;;2.83;1.50;;;12.20;99.90;;;;;;5031785;28;20026;-53
2023/07/07 03:54:09;;;;;;;3.17;1.75;;;12.20;99.90;;;;;;5031645;28;20423;-40
2023/07/07 03:56:35;;;;;;;4.15;1.48;;;12.30;99.90;;;;;;5031610;28;20017;-46
2023/07/07 03:59:00;;;;;;;2.47;1.27;;;12.30;99.90;;;;;;5031401;28;20088;-43
2023/07/07 04:01:26;;;;;;;5.43;1.77;;;10.80;99.90;;;;;;5031638;28;20384;-49
2023/07/07 04:03:52;;;;;;;2.88;1.38;;;12.30;99.90;;;;;;5012755;28;20015;-47
2023/07/07 04:06:19;;;;;;;2.80;1.35;;;12.30;99.90;;;;;;5013664;28;20044;-46
2023/07/07 04:08:44;;;;;;;2.95;1.58;;;11.50;99.90;;;;;;5011723;28;20435;-52
2023/07/07 04:11:14;;;;;;;3.22;1.63;;;12.20;99.90;;;;;;5011359;28;20192;-45
2023/07/07 04:13:41;;;;;;;6.07;1.38;;;12.20;99.90;;;;;;5011436;28;20022;-44
2023/07/07 04:16:15;;;;;;;2.88;1.50;;;12.20;99.90;;;;;;5011393;28;20403;-40
2023/07/07 04:18:41;;;;;;;2.80;1.55;;;12.20;99.90;;;;;;5011332;28;20018;-43
2023/07/07 04:21:10;;;;;;;3.08;1.58;;;12.30;99.90;;;;;;5011383;28;20103;-42
2023/07/07 04:23:40;;;;;;;3.67;1.60;;;12.30;99.90;;;;;;5011774;28;20469;-40
2023/07/07 04:26:06;;;;;;;5.18;1.77;;;12.40;99.90;;;;;;5011346;28;20041;-41
2023/07/07 04:28:36;;;;;;;5.20;2.05;;;12.50;99.90;;;;;;5011071;28;20434;-55
2023/07/07 04:31:03;;;;;;;4.03;1.55;;;12.50;99.90;;;;;;5011213;28;20125;-46
2023/07/07 04:33:30;;;;;;;8.75;1.83;;;12.50;99.90;;;;;;5010967;28;20505;-52
2023/07/07 04:36:01;;;;;;;2.63;1.23;;;12.50;99.90;;;;;;5011211;28;20025;-47
2023/07/07 04:38:31;;;;;;;7.22;1.42;;;12.60;99.90;;;;;;5010970;28;20033;-44
2023/07/07 04:41:10;;;;;;;3.85;1.52;;;13.20;99.90;;;;;;5001196;28;20125;-45
2023/07/07 04:43:41;;;;;;;3.67;1.80;;;12.70;99.90;;;;;;5010873;28;20121;-48
2023/07/07 04:46:09;;;;;;;3.40;1.52;;;13.90;99.90;;;;;;5011082;28;20022;-45
2023/07/07 04:48:36;;;;;;;3.38;1.30;;;12.90;99.90;;;;;;5010766;28;20037;-44
2023/07/07 04:51:06;;;;;;;3.08;1.38;;;13.00;99.90;;;;;;5009497;28;20095;-44
2023/07/07 04:53:32;;;;;;;4.45;2.00;;;13.00;99.90;;;;;;5010615;28;20037;-50
2023/07/07 04:55:59;;;;;;;3.63;1.10;;;13.10;99.90;;;;;;5010788;28;20037;-50
2023/07/07 04:58:26;;;;;;;4.40;1.30;;;13.10;99.90;;;;;;5010788;28;20435;-47
2023/07/07 05:01:11;;;;;;;4.20;1.25;;;13.30;99.90;;;;;;5012495;28;20030;-48
2023/07/07 05:03:38;;;;;;;3.42;1.50;;;13.60;99.90;;;;;;5030400;28;20017;-43
2023/07/07 05:06:04;;;;;;;2.65;1.40;;;15.80;99.90;;;;;;5030425;28;20025;-51
2023/07/07 05:08:36;;;;;;;3.83;1.75;;;14.50;99.90;;;;;;5030551;28;20036;-47
2023/07/07 05:11:02;;;;;;;4.10;1.20;;;14.90;99.90;;;;;;5030452;28;20042;-55
2023/07/07 05:13:28;;;;;;;1.92;1.20;;;15.20;99.90;;;;;;5030534;28;20032;-46
2023/07/07 05:16:05;;;;;;;2.95;1.23;;;15.40;99.90;;;;;;5030449;28;20025;-46
2023/07/07 05:18:31;;;;;;;5.43;1.60;;;15.50;99.90;;;;;;5030555;28;20030;-45
2023/07/07 05:20:57;;;;;;;2.67;1.40;;;15.50;99.90;;;;;;5030406;28;20030;-52
2023/07/07 05:23:23;;;;;;;3.85;1.30;;;15.50;99.90;;;;;;5030270;28;20075;-43
2023/07/07 05:25:50;;;;;;;4.32;1.63;;;15.50;99.90;;;;;;5030561;28;20026;-43
2023/07/07 05:28:16;;;;;;;4.30;1.27;;;15.60;99.90;;;;;;5030245;28;20018;-41
2023/07/07 05:30:42;;;;;;;4.25;1.55;;;15.60;99.90;;;;;;5030373;28;20042;-51
2023/07/07 05:33:08;;;;;;;3.50;1.38;;;15.60;99.90;;;;;;5030074;28;20390;-50
2023/07/07 05:35:34;;;;;;;4.80;1.42;;;15.70;99.90;;;;;;5030525;28;20132;-41
2023/07/07 05:38:01;;;;;;;4.40;1.20;;;15.90;99.90;;;;;;5030560;28;20486;-45
2023/07/07 05:40:27;;;;;;;6.72;1.63;;;15.80;99.90;;;;;;5030016;28;20041;-39
2023/07/07 05:42:53;;;;;;;4.47;1.48;;;15.80;99.90;;;;;;5030353;28;20028;-42
2023/07/07 05:45:19;;;;;;;3.03;1.50;;;16.00;99.90;;;;;;5029854;28;20033;-44
2023/07/07 05:47:45;;;;;;;3.38;1.50;;;16.20;99.90;;;;;;5030340;28;20022;-43
2023/07/07 05:50:10;;;;;;;2.33;1.20;;;16.30;99.90;;;;;;5029802;28;20033;-46
2023/07/07 05:52:36;;;;;;;3.47;1.15;;;16.50;99.90;;;;;;5030082;28;20040;-43
2023/07/07 05:55:03;;;;;;;1.85;0.75;;;16.90;99.90;;;;;;5030089;28;20021;-52
2023/07/07 05:57:29;;;;;;;3.85;1.30;;;17.40;99.90;;;;;;5029772;28;20112;-46
2023/07/07 05:59:55;;;;;;;3.28;1.27;;;18.00;99.90;;;;;;5030050;28;20466;-46
2023/07/07 06:02:20;;;;;;;2.92;1.30;;;18.80;99.90;;;;;;5029767;28;20104;-43
2023/07/07 06:04:46;;;;;;;5.75;1.70;;;20.50;99.90;;;;;;5031525;28;20022;-49
2023/07/07 06:07:12;;;;;;;2.22;1.23;;;20.20;99.90;;;;;;5033622;28;20028;-50
2023/07/07 06:09:38;;;;;;;2.35;1.00;;;20.80;99.90;;;;;;5033531;28;20025;-44
2023/07/07 06:12:04;;;;;;;2.67;1.23;;;21.40;99.90;;;;;;5033399;28;20057;-46
2023/07/07 06:14:30;;;;;;;1.88;1.13;;;22.00;99.90;;;;;;5033494;28;20059;-50
2023/07/07 06:16:56;;;;;;;1.45;1.00;;;22.60;99.90;;;;;;5033618;28;20017;-44
2023/07/07 06:19:21;;;;;;;1.85;1.00;;;23.00;99.90;;;;;;5019668;28;20384;-46
2023/07/07 06:21:47;;;;;;;1.63;0.90;;;23.50;99.90;;;;;;5013451;28;20029;-48
2023/07/07 06:24:13;;;;;;;3.55;1.73;;;24.10;99.90;;;;;;5013384;28;20144;-43
2023/07/07 06:26:38;;;;;;;2.20;0.90;;;24.30;99.90;;;;;;5013298;28;20016;-48
2023/07/07 06:29:04;;;;;;;4.82;1.20;;;24.60;99.90;;;;;;5013448;28;20033;-56
2023/07/07 06:31:29;;;;;;;1.85;1.00;;;24.80;99.90;;;;;;5013182;28;20029;-49
2023/07/07 06:33:55;;;;;;;2.17;1.20;;;25.00;99.90;;;;;;5013417;28;20017;-54
2023/07/07 06:36:21;;;;;;;2.72;0.98;;;25.50;99.90;;;;;;5013154;28;20022;-44
2023/07/07 06:38:47;;;;;;;2.85;1.10;;;25.90;99.90;;;;;;5013042;28;20057;-52
2023/07/07 06:41:15;;;;;;;2.47;1.10;;;26.10;99.90;;;;;;5013168;28;20034;-42
2023/07/07 06:43:41;;;;;;;2.65;1.27;;;26.40;99.90;;;;;;5013106;28;20029;-49
2023/07/07 06:46:10;;;;;;;2.92;1.33;;;26.60;99.70;;;;;;5013041;28;20025;-48
2023/07/07 06:48:35;;;;;;;2.33;1.20;;;27.10;99.90;;;;;;5012932;28;20058;-46
2023/07/07 06:51:01;;;;;;;2.03;1.15;;;27.10;98.50;;;;;;5012873;28;20072;-44
2023/07/07 06:53:27;;;;;;;2.95;1.10;;;26.80;98.40;;;;;;5012832;28;20026;-42
2023/07/07 06:55:52;;;;;;;1.70;1.00;;;27.20;98.90;;;;;;5012614;28;20022;-41
2023/07/07 06:58:21;;;;;;;3.97;1.52;;;27.40;98.40;;;;;;5012877;28;20033;-41
2023/07/07 07:00:46;;;;;;;2.63;1.40;;;27.40;97.50;;;;;;5013633;28;20507;-41
2023/07/07 07:03:12;;;;;;;6.82;1.30;;;27.50;97.50;;;;;;5032743;28;20059;-41
2023/07/07 07:05:38;;;;;;;2.42;1.15;;;27.60;97.80;;;;;;5032471;28;20084;-42
2023/07/07 07:08:04;;;;;;;3.40;1.23;;;27.60;95.70;;;;;;5032556;28;20067;-43
2023/07/07 07:10:30;;;;;;;4.32;1.08;;;27.90;97.00;;;;;;5032247;28;20065;-53
2023/07/07 07:12:55;;;;;;;2.33;1.35;;;28.00;95.40;;;;;;5032389;28;20017;-42
2023/07/07 07:15:21;;;;;;;2.50;1.55;;;27.90;94.70;;;;;;5030958;28;20033;-42
2023/07/07 07:17:47;;;;;;;2.25;1.23;;;28.00;95.50;;;;;;5032192;28;20032;-42
2023/07/07 07:20:13;;;;;;;3.38;1.35;;;27.80;95.00;;;;;;5032276;28;20030;-41
2023/07/07 07:22:39;;;;;;;3.45;1.33;;;27.50;93.90;;;;;;5029901;28;20402;-41
2023/07/07 07:25:05;;;;;;;6.18;1.50;;;28.00;96.10;;;;;;5011996;28;20026;-42
2023/07/07 07:27:31;;;;;;;4.28;1.40;;;27.90;93.80;;;;;;5011479;28;20018;-50
2023/07/07 07:29:57;;;;;;;3.75;1.38;;;28.40;95.20;;;;;;5011501;28;20028;-42
2023/07/07 07:32:22;;;;;;;2.30;1.27;;;28.00;94.00;;;;;;4995718;28;20037;-46
2023/07/07 07:34:48;;;;;;;2.15;1.10;;;27.90;93.20;;;;;;5010034;28;20374;-41
2023/07/07 07:37:14;;;;;;;2.72;1.20;;;28.30;95.50;;;;;;5012032;28;20033;-41
2023/07/07 07:39:40;;;;;;;7.13;1.30;;;28.50;94.40;;;;;;5012113;28;20036;-45
2023/07/07 07:42:06;;;;;;;2.03;1.00;;;28.20;93.40;;;;;;5012060;28;20030;-45
2023/07/07 07:44:32;;;;;;;4.05;1.55;;;27.80;93.80;;;;;;5011877;28;20113;-41
2023/07/07 07:46:58;;;;;;;6.63;1.30;;;27.90;93.50;;;;;;5012008;28;20026;-41
2023/07/07 07:49:26;;;;;;;2.55;1.10;;;28.30;93.40;;;;;;5011759;28;20025;-41
2023/07/07 07:51:52;;;;;;;3.03;1.50;;;28.40;92.90;;;;;;5011855;28;20024;-41
2023/07/07 07:54:20;;;;;;;2.97;1.33;;;28.60;93.00;;;;;;5011820;28;20483;-41
2023/07/07 07:56:46;;;;;;;4.07;1.33;;;28.70;93.70;;;;;;5011862;28;20014;-49
2023/07/07 07:59:12;;;;;;;3.47;1.25;;;29.10;93.50;;;;;;5011917;28;20034;-45
2023/07/07 08:01:38;;;;;;;3.22;1.50;;;28.80;93.30;;;;;;5020089;28;20497;-44
2023/07/07 08:04:04;;;;;;;8.77;3.28;;;28.90;93.00;;;;;;5024910;28;20030;-48
2023/07/07 08:06:30;;;;;;;2.88;1.10;;;28.80;94.70;;;;;;5019099;28;20087;-46
2023/07/07 08:08:56;;;;;;;6.03;1.20;;;28.50;92.90;;;;;;5011127;28;20108;-44
2023/07/07 08:11:48;;;;;;;2.00;1.38;;;28.40;92.60;;;;;;5011414;28;20050;-42
2023/07/07 08:14:19;;;;;;;4.10;1.42;;;28.50;94.30;;;;;;5011407;28;20021;-44
2023/07/07 08:16:51;;;;;;;4.80;1.42;;;28.60;94.10;;;;;;4995333;28;20049;-44
2023/07/07 08:19:17;;;;;;;3.70;1.25;;;28.70;93.70;;;;;;5010830;28;20057;-41
2023/07/07 08:21:42;;;;;;;3.30;1.20;;;28.80;94.10;;;;;;5009732;28;20018;-42
2023/07/07 08:24:08;;;;;;;2.97;1.25;;;28.70;92.30;;;;;;5011475;28;20025;-41
2023/07/07 08:26:34;;;;;;;2.45;1.10;;;28.60;91.70;;;;;;5011045;28;20022;-45
2023/07/07 08:29:00;;;;;;;4.32;1.45;;;28.90;91.70;;;;;;5010963;28;20033;-41
2023/07/07 08:31:26;;;;;;;3.50;1.35;;;29.00;92.00;;;;;;5011242;28;20022;-41
2023/07/07 08:33:52;;;;;;;2.50;1.40;;;29.20;93.60;;;;;;5009924;28;20018;-48
2023/07/07 08:36:18;;;;;;;3.35;1.15;;;29.50;90.70;;;;;;5010824;28;20380;-50
2023/07/07 08:38:44;;;;;;;1.85;1.30;;;29.70;91.60;;;;;;5010932;28;20084;-44
2023/07/07 08:41:09;;;;;;;3.03;1.13;;;29.50;90.90;;;;;;5011070;28;20084;-43
2023/07/07 08:43:36;;;;;;;3.88;1.38;;;29.40;90.60;;;;;;5010986;28;20021;-40
2023/07/07 08:46:21;;;;;;;2.00;1.23;;;29.60;92.50;;;;;;5010650;28;20108;-54
2023/07/07 08:48:52;;;;;;;2.70;1.25;;;30.10;93.40;;;;;;5010807;28;20084;-47
2023/07/07 08:51:23;;;;;;;4.03;1.60;;;30.70;93.20;;;;;;5010825;28;20467;-47
2023/07/07 08:53:52;;;;;;;2.95;1.48;;;30.50;91.40;;;;;;5010973;28;20033;-40
2023/07/07 08:56:30;;;;;;;;;;;30.60;91.90;;;;;;5009989;28;20029;-50
2023/07/07 08:59:13;;;;;;;1.80;1.00;;;30.90;90.90;;;;;;5010699;28;20301;-49
2023/07/07 09:01:50;;;;;;;3.08;1.77;;;30.90;87.10;;;;;;5019112;28;20060;-54
2023/07/07 09:04:36;;;;;;;3.17;1.55;;;30.60;85.90;;;;;;5030569;28;20029;-52
2023/07/07 09:07:30;;;;;;;2.50;1.52;;;30.30;90.10;;;;;;5030367;28;20021;-48
2023/07/07 09:10:04;;;;;;;5.93;1.50;;;30.30;85.60;;;;;;5030695;28;20025;-49
2023/07/07 09:12:37;;;;;;;3.60;1.38;;;30.20;86.50;;;;;;5030570;28;20041;-43
2023/07/07 09:15:13;;;;;;;2.00;1.30;;;30.10;86.20;;;;;;5030513;28;20033;-45
2023/07/07 09:17:44;;;;;;;3.03;1.40;;;29.90;85.80;;;;;;5030371;28;20068;-41
2023/07/07 09:20:12;;;;;;;3.22;1.30;;;30.20;88.70;;;;;;5004327;28;20034;-45
2023/07/07 09:23:06;;;;;;;2.25;1.23;;;30.00;89.80;;;;;;5030631;28;20032;-43
2023/07/07 09:26:05;;;;;;;2.05;1.45;;;30.50;90.20;;;;;;5030495;28;20413;-49
2023/07/07 09:28:37;;;;;;;2.13;1.40;;;30.80;85.90;;;;;;5026309;28;20026;-41
2023/07/07 09:31:17;;;;;;;2.83;1.45;;;30.70;86.20;;;;;;5030388;28;20029;-46
2023/07/07 09:33:43;;;;;;;2.88;1.50;;;30.50;89.90;;;;;;5030479;28;20374;-42
2023/07/07 09:36:09;;;;;;;2.70;1.63;;;30.70;84.60;;;;;;5030419;28;20032;-44
2023/07/07 09:38:54;;;;;;;2.53;1.35;;;30.80;85.30;;;;;;5017085;28;20034;-44
2023/07/07 09:41:23;;;;;;;2.78;1.60;;;31.20;86.40;;;;;;5002831;28;20170;-47
2023/07/07 09:44:01;;;;;;;2.45;1.40;;;30.50;81.00;;;;;;5013934;28;20072;-47
2023/07/07 09:46:52;;;;;;;2.53;1.50;;;30.90;83.20;;;;;;5014563;28;20049;-47
2023/07/07 09:49:32;;;;;;;5.93;1.67;;;30.90;82.00;;;;;;5013841;28;20026;-45
2023/07/07 09:52:04;;;;;;;3.42;1.48;;;30.70;83.30;;;;;;5014221;28;20033;-42
2023/07/07 09:54:31;;;;;;;2.47;1.38;;;31.30;85.40;;;;;;5003882;28;20609;-43
2023/07/07 09:57:02;;;;;;;2.55;1.27;;;31.30;81.90;;;;;;5014345;28;20033;-51
2023/07/07 09:59:41;;;;;;;2.35;1.35;;;31.50;85.90;;;;;;5012544;28;20044;-45
2023/07/07 10:02:16;;;;;;;3.20;1.45;;;31.60;79.30;;;;;;5026082;28;20363;-47
2023/07/07 10:04:54;;;;;;;5.95;1.30;;;31.00;82.00;;;;;;5033630;28;20024;-44
2023/07/07 10:07:21;;;;;;;3.10;1.57;;;31.40;80.20;;;;;;5033914;28;20018;-45
2023/07/07 10:09:46;;;;;;;2.38;1.38;;;31.60;79.90;;;;;;5033493;28;20100;-43
2023/07/07 10:12:15;;;;;;;1.65;1.20;;;31.80;83.70;;;;;;5030762;28;20076;-47
2023/07/07 10:14:42;;;;;;;4.38;1.70;;;31.80;78.20;;;;;;5013949;28;20026;-45
2023/07/07 10:17:08;;;;;;;2.95;1.20;;;32.00;81.00;;;;;;5013478;28;20482;-46
2023/07/07 10:19:42;;;;;;;2.70;1.48;;;31.70;81.20;;;;;;5013720;28;20041;-47
2023/07/07 10:22:14;;;;;;;3.50;1.25;;;31.80;78.70;;;;;;5002754;28;20036;-44
2023/07/07 10:24:39;;;;;;;5.93;1.63;;;31.90;77.50;;;;;;5012311;28;20033;-49
2023/07/07 10:27:10;;;;;;;4.53;1.85;;;31.60;77.20;;;;;;5013306;28;20029;-49
2023/07/07 10:29:39;;;;;;;1.92;1.30;;;31.60;75.80;;;;;;5013488;28;20521;-47
2023/07/07 10:32:06;;;;;;;2.78;1.48;;;31.40;80.80;;;;;;5013322;28;20478;-43
2023/07/07 10:34:41;;;;;;;2.90;1.40;;;31.50;76.20;;;;;;5013376;28;20057;-58
2023/07/07 10:37:20;;;;;;;1.45;1.20;;;31.30;77.80;;;;;;5013447;28;20025;-58
2023/07/07 10:39:54;;;;;;;3.92;1.65;;;31.60;80.70;;;;;;5013286;28;20041;-57
2023/07/07 10:42:23;;;;;;;5.43;1.60;;;32.00;78.70;;;;;;5013042;28;20018;-42
2023/07/07 10:44:49;;;;;;;3.10;1.50;;;31.70;74.20;;;;;;5011987;28;20084;-45
2023/07/07 10:47:18;;;;;;;4.15;1.80;;;31.60;75.30;;;;;;5012842;28;20037;-47
2023/07/07 10:49:44;;;;;;;2.97;1.30;;;31.70;75.80;;;;;;5012812;28;20026;-47
2023/07/07 10:52:21;;;;;;;1.70;1.10;;;31.60;75.40;;;;;;5012389;28;20097;-51
2023/07/07 10:54:56;;;;;;;2.75;1.05;;;31.60;72.50;;;;;;5012892;28;20018;-43
2023/07/07 10:57:36;;;;;;;2.63;1.30;;;31.50;75.30;;;;;;5008675;28;20024;-48
2023/07/07 11:00:46;;;;;;;2.38;1.40;;;31.60;74.70;;;;;;4994077;28;20034;-51
2023/07/07 11:03:36;;;;;;;3.00;1.60;;;31.40;73.30;;;;;;4987617;28;20045;-53
2023/07/07 11:06:35;;;;;;;2.17;1.00;;;32.00;77.20;;;;;;5009183;28;20061;-48
2023/07/07 11:09:48;;;;;;;1.65;1.02;;;32.00;72.20;;;;;;5012767;28;20033;-46
2023/07/07 11:12:31;;;;;;;1.92;1.17;;;32.00;73.40;;;;;;5000536;28;20038;-54
2023/07/07 11:15:21;;;;;;;3.30;1.52;;;32.20;73.10;;;;;;5012162;28;20065;-52
2023/07/07 11:17:52;;;;;;;1.52;1.00;;;32.20;71.70;;;;;;5012414;28;20136;-50
2023/07/07 11:20:45;;;;;;;2.67;1.10;;;32.00;68.40;;;;;;5012525;28;20505;-52
2023/07/07 11:23:30;;;;;;;2.20;1.15;;;32.20;71.30;;;;;;5010298;28;20028;-46
2023/07/07 11:26:07;;;;;;;2.80;1.20;;;32.10;69.40;;;;;;5012145;28;20643;-45
2023/07/07 11:29:06;;;;;;;2.60;1.08;;;32.10;72.10;;;;;;5012261;28;20025;-45
2023/07/07 11:31:38;;;;;;;;;;;32.30;67.80;;;;;;5009098;28;20040;-45
2023/07/07 11:34:28;;;;;;;2.80;1.60;;;32.50;71.70;;;;;;5012314;28;19914;-50
2023/07/07 11:37:15;;;;;;;4.22;1.40;;;32.00;63.40;;;;;;5011976;28;20029;-50
2023/07/07 11:40:07;;;;;;;2.60;1.48;;;31.60;68.10;;;;;;5011933;28;20026;-51
2023/07/07 11:43:05;;;;;;;2.72;1.58;;;31.90;69.90;;;;;;5007999;28;20034;-47
2023/07/07 11:45:40;;;;;;;6.13;1.67;;;31.50;72.40;;;;;;5010495;28;20046;-55
2023/07/07 11:48:06;;;;;;;3.17;1.60;;;31.80;68.70;;;;;;5012040;28;20030;-48
2023/07/07 11:51:05;;;;;;;2.40;1.40;;;32.00;67.50;;;;;;5011875;28;20048;-52
2023/07/07 11:53:49;;;;;;;3.22;1.60;;;32.20;72.90;;;;;;4998245;28;20044;-49
2023/07/07 11:56:40;;;;;;;3.20;1.80;;;31.90;71.10;;;;;;5011629;28;20131;-48
2023/07/07 11:59:15;;;;;;;4.75;1.88;;;32.00;75.90;;;;;;5011600;28;20096;-48
2023/07/07 12:01:49;;;;;;;2.58;1.42;;;32.20;68.90;;;;;;5019522;28;20017;-52
2023/07/07 12:04:39;;;;;;;3.45;1.40;;;32.30;67.10;;;;;;5031199;28;20060;-44
2023/07/07 12:07:22;;;;;;;3.17;1.52;;;32.00;70.60;;;;;;5031318;28;20068;-42
2023/07/07 12:09:59;;;;;;;3.10;1.80;;;32.00;69.30;;;;;;5031302;28;20025;-41
2023/07/07 12:12:37;;;;;;;3.70;1.77;;;31.50;66.90;;;;;;5017788;28;20498;-42
2023/07/07 12:15:26;;;;;;;4.00;1.40;;;31.30;70.20;;;;;;5010790;28;20037;-44
2023/07/07 12:18:19;;;;;;;2.22;1.40;;;31.50;67.40;;;;;;5011343;28;20022;-43
2023/07/07 12:21:12;;;;;;;3.25;1.90;;;31.00;64.90;;;;;;5010477;28;20064;-48
2023/07/07 12:23:42;;;;;;;3.72;1.92;;;30.70;68.20;;;;;;5001788;28;20062;-50
2023/07/07 12:26:22;;;;;;;3.58;1.80;;;31.00;67.50;;;;;;5011262;28;20026;-55
2023/07/07 12:28:51;;;;;;;4.20;2.20;;;31.20;66.60;;;;;;5011316;28;20022;-51
2023/07/07 12:31:19;;;;;;;2.67;1.73;;;30.70;60.80;;;;;;5010104;28;20109;-47
2023/07/07 12:33:45;;;;;;;5.80;1.48;;;30.30;62.20;;;;;;4996472;28;20022;-53
2023/07/07 12:36:14;;;;;;;2.70;1.60;;;30.20;67.40;;;;;;5011273;28;20074;-49
2023/07/07 12:38:41;;;;;;;3.55;1.90;;;30.40;69.50;;;;;;5010783;28;20494;-46
2023/07/07 12:41:11;;;;;;;3.75;2.08;;;30.50;67.00;;;;;;5010938;28;20037;-49
2023/07/07 12:43:43;;;;;;;4.05;2.13;;;30.60;70.00;;;;;;5010795;28;20505;-46
2023/07/07 12:46:24;;;;;;;5.00;1.90;;;30.10;63.70;;;;;;5011407;28;20080;-44
2023/07/07 12:48:52;;;;;;;3.33;2.08;;;30.20;69.30;;;;;;5010923;28;20054;-47
2023/07/07 12:51:19;;;;;;;4.03;2.10;;;30.50;66.90;;;;;;5010751;28;20553;-47
2023/07/07 12:53:47;;;;;;;4.53;2.08;;;30.20;65.20;;;;;;5010854;28;20033;-52
2023/07/07 12:56:23;;;;;;;4.13;2.40;;;30.10;65.00;;;;;;5011420;28;20048;-47
2023/07/07 12:58:57;;;;;;;5.22;2.38;;;30.00;65.10;;;;;;5006339;28;20495;-44
2023/07/07 13:01:38;;;;;;;4.35;2.25;;;29.80;62.60;;;;;;5007532;28;20087;-50
2023/07/07 13:04:07;;;;;;;4.22;2.05;;;29.70;62.80;;;;;;5010843;28;20092;-53
2023/07/07 13:06:37;;;;;;;4.03;2.15;;;29.30;65.50;;;;;;5010437;28;20022;-45